Time;durP1;ratioP1;P1;durP2;ratioP2;P2;SDS_P1;SDS_P2;PMS_P1;PMS_P2;Temp;Humidity;BMP_temperature;BMP_pressure;BME280_temperature;BME280_humidity;BME280_pressure;Samples;Min_cycle;Max_cycle;Signal;HPM_P1;HPM_P2
2022/06/01 00:02:17;;;;;;;7.00;2.00;;;;;;;13.61;59.77;98727.15;105867;1274;23301;-82
2022/06/01 00:04:47;;;;;;;5.20;1.50;;;;;;;13.59;59.86;98720.05;105975;1274;25380;-77
2022/06/01 00:07:31;;;;;;;4.40;1.90;;;;;;;13.53;60.03;98712.69;105839;1275;24429;-82
2022/06/01 00:10:30;;;;;;;5.10;2.10;;;;;;;13.48;60.03;98720.61;105896;1274;22609;-80
2022/06/01 00:13:03;;;;;;;6.70;1.50;;;;;;;13.43;60.15;98721.46;105815;1276;22592;-81
2022/06/01 00:15:37;;;;;;;6.40;1.80;;;;;;;13.37;60.17;98716.41;105819;1275;22560;-84
2022/06/01 00:18:18;;;;;;;9.20;2.20;;;;;;;13.35;60.32;98723.92;105871;1274;22566;-78
2022/06/01 00:20:51;;;;;;;4.80;1.70;;;;;;;13.33;60.39;98727.17;105847;1274;22560;-80
2022/06/01 00:23:20;;;;;;;4.30;1.80;;;;;;;13.31;60.42;98731.52;105886;1274;22532;-79
2022/06/01 00:26:11;;;;;;;5.20;1.90;;;;;;;13.27;60.60;98734.02;105845;1274;24265;-82
2022/06/01 00:28:41;;;;;;;6.40;2.30;;;;;;;13.23;60.66;98726.80;105850;1275;22558;-79
2022/06/01 00:31:16;;;;;;;5.00;2.20;;;;;;;13.21;60.81;98714.63;105802;1275;25356;-77
2022/06/01 00:33:51;;;;;;;5.80;2.00;;;;;;;13.22;60.79;98713.12;105747;1274;24186;-81
2022/06/01 00:36:41;;;;;;;6.40;2.10;;;;;;;13.25;60.95;98721.23;105647;1276;23866;-84
2022/06/01 00:39:15;;;;;;;9.20;2.30;;;;;;;13.31;61.06;98720.98;105929;1274;22550;-80
2022/06/01 00:42:09;;;;;;;7.30;2.60;;;;;;;13.34;61.13;98694.50;105954;1274;24284;-84
2022/06/01 00:44:53;;;;;;;9.10;3.20;;;;;;;13.38;61.21;98687.77;105888;1274;22766;-82
2022/06/01 00:48:00;;;;;;;7.60;2.60;;;;;;;13.35;61.14;98687.29;105830;1274;24425;-80
2022/06/01 00:51:08;;;;;;;;;;;;;;;;;;;;;
2022/06/01 00:57:33;;;;;;;8.50;2.30;;;;;;;13.32;61.28;98676.20;105946;1274;22620;-77
2022/06/01 01:00:38;;;;;;;;;;;;;;;;;;;;;
2022/06/01 01:03:53;;;;;;;9.30;2.90;;;;;;;13.33;61.34;98682.55;105902;1274;25509;-79
2022/06/01 01:07:12;;;;;;;;;;;;;;;;;;;;;
2022/06/01 01:10:20;;;;;;;10.20;3.30;;;;;;;13.19;61.60;98696.37;105900;1274;25324;-77
2022/06/01 01:12:56;;;;;;;11.60;3.60;;;;;;;13.13;61.66;98696.23;105963;1274;25408;-78
2022/06/01 01:15:51;;;;;;;;;;;;;;;;;;;;;
2022/06/01 01:18:46;;;;;;;8.40;2.80;;;;;;;13.01;61.73;98691.52;105811;1274;25242;-77
2022/06/01 01:21:53;;;;;;;7.90;2.60;;;;;;;12.97;61.79;98694.91;105884;1274;25312;-79
2022/06/01 01:25:01;;;;;;;9.20;3.20;;;;;;;12.95;61.89;98697.59;105877;1275;25245;-78
2022/06/01 01:31:25;;;;;;;10.10;4.00;;;;;;;12.89;62.03;98687.20;105915;1274;22559;-84
2022/06/01 01:34:25;;;;;;;10.10;3.90;;;;;;;12.84;62.08;98686.80;105822;1275;22818;-84
2022/06/01 01:37:34;;;;;;;12.60;4.10;;;;;;;12.77;62.20;98694.25;105992;1274;25486;-80
2022/06/01 01:40:28;;;;;;;10.30;3.60;;;;;;;12.70;62.10;98692.23;105785;1276;22654;-77
2022/06/01 01:43:37;;;;;;;12.80;3.60;;;;;;;12.68;62.18;98686.23;105921;1274;22560;-83
2022/06/01 01:46:45;;;;;;;;;;;;;;;;;;;;;
2022/06/01 01:49:27;;;;;;;8.50;2.80;;;;;;;12.64;62.42;98676.33;105923;1274;22547;-83
2022/06/01 01:52:24;;;;;;;7.80;2.70;;;;;;;12.60;62.45;98671.36;105913;1274;26625;-83
2022/06/01 01:55:20;;;;;;;9.70;2.90;;;;;;;12.55;62.55;98664.48;105797;1276;22556;-83
2022/06/01 01:59:03;;;;;;;;;;;;;;;;;;;;;
2022/06/01 02:02:35;;;;;;;;;;;;;;;;;;;;;
2022/06/01 02:06:28;;;;;;;;;;;;;;;;;;;;;
2022/06/01 02:12:41;;;;;;;7.80;2.70;;;;;;;12.35;62.84;98664.47;105921;1273;22531;-84
2022/06/01 02:12:53;;;;;;;6.90;2.30;;;;;;;12.35;62.80;98665.00;106058;1273;22562;-79
2022/06/01 02:16:31;;;;;;;;;;;;;;;;;;;;;
2022/06/01 02:20:34;;;;;;;7.00;2.60;;;;;;;12.16;63.01;98660.31;106218;1273;22845;-83
2022/06/01 02:23:12;;;;;;;;;;;;;;;;;;;;;
2022/06/01 02:26:10;;;;;;;8.00;2.60;;;;;;;12.00;63.03;98666.71;105653;1281;22560;-82
2022/06/01 02:29:27;;;;;;;5.30;1.90;;;;;;;11.97;63.02;98669.12;105556;1281;25371;-80
2022/06/01 02:32:04;;;;;;;5.20;1.90;;;;;;;11.94;63.09;98664.19;105025;1287;22844;-83
2022/06/01 02:34:37;;;;;;;6.70;2.00;;;;;;;11.93;62.98;98669.65;104789;1288;24306;-81
2022/06/01 02:37:14;;;;;;;8.50;2.60;;;;;;;11.89;63.11;98678.49;104751;1288;22915;-86
2022/06/01 02:40:03;;;;;;;6.00;2.20;;;;;;;11.87;63.26;98674.21;105007;1287;22566;-78
2022/06/01 02:42:53;;;;;;;7.20;2.50;;;;;;;11.86;63.39;98668.24;104966;1288;22579;-81
2022/06/01 02:45:51;;;;;;;;;;;;;;;;;;;;;
2022/06/01 02:48:47;;;;;;;9.70;2.80;;;;;;;11.73;63.31;98665.72;104675;1288;22570;-80
2022/06/01 02:51:39;;;;;;;8.10;2.40;;;;;;;11.67;63.41;98668.52;104980;1287;22586;-80
2022/06/01 02:54:51;;;;;;;;;;;;;;;;;;;;;
2022/06/01 02:57:21;;;;;;;8.20;2.40;;;;;;;11.65;63.76;98659.61;104993;1288;25356;-78
2022/06/01 03:01:03;;;;;;;7.20;2.00;;;;;;;11.64;63.60;98659.51;105335;1282;25357;-77
2022/06/01 03:03:31;;;;;;;6.50;2.20;;;;;;;11.60;63.66;98658.55;105566;1282;24417;-83
2022/06/01 03:06:22;;;;;;;8.80;2.20;;;;;;;11.58;63.71;98656.27;105525;1282;22768;-78
2022/06/01 03:09:06;;;;;;;;;;;;;;;;;;;;;
2022/06/01 03:12:00;;;;;;;;;;;;;;;;;;;;;
2022/06/01 03:14:50;;;;;;;5.80;2.10;;;;;;;11.49;63.87;98644.00;105816;1274;22559;-83
2022/06/01 03:17:20;;;;;;;5.90;1.90;;;;;;;11.45;63.78;98644.30;105865;1273;22554;-83
2022/06/01 03:19:53;;;;;;;6.20;2.30;;;;;;;11.41;64.02;98640.20;105832;1273;22534;-81
2022/06/01 03:22:54;;;;;;;;;;;;;;;;;;;;;
2022/06/01 03:26:13;;;;;;;5.00;1.80;;;;;;;11.37;64.20;98640.81;105907;1273;22553;-80
2022/06/01 03:28:44;;;;;;;5.60;1.80;;;;;;;11.37;64.16;98644.92;105886;1273;22650;-82
2022/06/01 03:31:18;;;;;;;5.90;2.10;;;;;;;11.36;64.10;98644.84;106044;1273;25252;-79
2022/06/01 03:34:25;;;;;;;;;;;;;;;;;;;;;
2022/06/01 03:37:23;;;;;;;4.10;1.60;;;;;;;11.42;64.24;98643.88;106072;1273;23032;-85
2022/06/01 03:39:53;;;;;;;6.20;1.70;;;;;;;11.48;64.27;98659.39;105841;1274;22553;-79
2022/06/01 03:42:31;;;;;;;;;;;;;;;;;;;;;
2022/06/01 03:47:54;;;;;;;7.20;2.10;;;;;;;11.54;64.39;98680.16;105881;1273;22527;-78
2022/06/01 03:50:42;;;;;;;7.10;2.30;;;;;;;11.59;64.37;98690.41;105855;1273;24370;-79
2022/06/01 03:53:13;;;;;;;5.30;2.20;;;;;;;11.66;64.37;98692.84;105849;1273;22735;-78
2022/06/01 03:56:07;;;;;;;7.70;2.00;;;;;;;11.77;64.37;98700.69;105974;1274;25363;-80
2022/06/01 03:58:51;;;;;;;6.80;2.20;;;;;;;11.90;64.50;98703.55;105969;1273;25198;-78
2022/06/01 04:01:49;;;;;;;6.20;2.00;;;;;;;12.03;64.46;98698.73;105824;1273;22673;-79
2022/06/01 04:04:30;;;;;;;7.30;2.10;;;;;;;12.23;64.66;98696.70;105886;1273;25339;-78
2022/06/01 04:07:00;;;;;;;5.60;1.70;;;;;;;12.38;64.58;98701.44;105661;1276;24271;-81
2022/06/01 04:09:51;;;;;;;3.50;1.50;;;;;;;12.48;64.22;98701.67;105703;1276;22548;-83
2022/06/01 04:12:21;;;;;;;3.40;1.00;;;;;;;12.59;64.22;98701.63;105809;1274;22574;-81
2022/06/01 04:14:56;;;;;;;3.40;1.10;;;;;;;12.68;64.15;98699.23;105840;1273;25377;-77
2022/06/01 04:18:12;;;;;;;3.00;1.10;;;;;;;12.79;64.16;98703.99;105957;1273;25355;-79
2022/06/01 04:20:58;;;;;;;4.00;1.50;;;;;;;12.92;64.22;98707.16;105860;1273;22567;-81
2022/06/01 04:23:28;;;;;;;3.30;1.30;;;;;;;13.02;64.14;98708.48;105921;1273;25373;-77
2022/06/01 04:26:30;;;;;;;5.60;1.60;;;;;;;13.08;64.19;98711.45;105928;1273;22563;-85
2022/06/01 04:28:59;;;;;;;5.60;2.10;;;;;;;13.20;64.23;98706.11;105989;1273;24405;-84
2022/06/01 04:31:28;;;;;;;5.10;1.90;;;;;;;13.25;64.21;98711.99;105880;1273;24253;-78
2022/06/01 04:33:58;;;;;;;5.30;2.30;;;;;;;13.35;64.40;98706.61;105769;1273;22707;-84
2022/06/01 04:36:28;;;;;;;7.70;2.50;;;;;;;13.46;64.30;98702.57;105802;1275;24250;-84
2022/06/01 04:39:04;;;;;;;5.10;2.20;;;;;;;13.57;64.21;98701.95;105831;1273;25295;-78
2022/06/01 04:41:59;;;;;;;5.60;2.40;;;;;;;13.71;64.34;98699.94;105780;1276;24254;-80
2022/06/01 04:44:41;;;;;;;8.00;2.40;;;;;;;13.88;64.27;98701.46;105920;1273;23019;-79
2022/06/01 04:47:18;;;;;;;7.90;2.30;;;;;;;14.00;64.02;98703.76;105766;1274;22628;-85
2022/06/01 04:49:49;;;;;;;5.10;2.60;;;;;;;14.07;63.94;98704.34;105879;1276;22523;-81
2022/06/01 04:52:45;;;;;;;4.80;2.30;;;;;;;14.16;63.87;98708.20;105843;1273;22594;-82
2022/06/01 04:55:25;;;;;;;6.00;2.30;;;;;;;14.24;63.78;98711.69;105883;1275;24108;-78
2022/06/01 04:58:01;;;;;;;6.40;2.20;;;;;;;14.33;63.86;98710.33;105912;1273;23902;-79
2022/06/01 05:00:57;;;;;;;5.80;2.20;;;;;;;14.52;63.99;98706.12;106089;1273;24270;-78
2022/06/01 05:04:08;;;;;;;5.20;2.20;;;;;;;14.73;63.68;98704.70;105813;1273;25334;-77
2022/06/01 05:06:35;;;;;;;4.80;1.80;;;;;;;14.91;63.42;98711.35;105968;1273;25238;-78
2022/06/01 05:09:08;;;;;;;7.30;1.90;;;;;;;14.94;62.96;98714.67;105836;1273;22531;-81
2022/06/01 05:11:49;;;;;;;3.70;1.40;;;;;;;14.95;62.98;98715.49;105926;1273;22693;-76
2022/06/01 05:14:49;;;;;;;4.00;1.80;;;;;;;15.06;63.10;98721.20;106932;1273;24503;-77
2022/06/01 05:17:34;;;;;;;6.20;1.90;;;;;;;15.16;62.93;98722.45;105887;1274;22658;-78
2022/06/01 05:20:09;;;;;;;5.00;1.70;;;;;;;15.32;63.14;98726.91;105958;1273;24373;-82
2022/06/01 05:22:48;;;;;;;6.00;2.00;;;;;;;15.46;62.69;98725.46;106247;1273;22872;-77
2022/06/01 05:25:32;;;;;;;;;;;;;;;;;;;;;
2022/06/01 05:28:19;;;;;;;4.50;1.60;;;;;;;15.65;62.56;98716.42;103904;1274;2801422;-83
2022/06/01 05:31:01;;;;;;;9.00;1.90;;;;;;;15.81;62.52;98714.99;106031;1273;22698;-84
2022/06/01 05:33:43;;;;;;;5.50;1.70;;;;;;;15.99;62.40;98716.61;106152;1273;23936;-80
2022/06/01 05:36:18;;;;;;;5.40;1.60;;;;;;;16.13;62.35;98716.50;105901;1273;23785;-81
2022/06/01 05:38:48;;;;;;;5.10;1.50;;;;;;;16.22;62.01;98714.48;105883;1274;24307;-79
2022/06/01 05:41:24;;;;;;;5.30;1.60;;;;;;;16.27;62.10;98714.20;105940;1274;26479;-79
2022/06/01 05:44:07;;;;;;;4.20;1.70;;;;;;;16.39;61.96;98708.31;105916;1273;25478;-84
2022/06/01 05:46:57;;;;;;;5.10;1.30;;;;;;;16.57;62.23;98707.20;105882;1273;25574;-81
2022/06/01 05:49:37;;;;;;;5.20;1.30;;;;;;;16.78;61.94;98712.23;105908;1273;25339;-77
2022/06/01 05:52:05;;;;;;;4.40;1.70;;;;;;;16.89;61.76;98713.19;105802;1276;25416;-80
2022/06/01 05:55:15;;;;;;;6.50;1.70;;;;;;;17.03;61.97;98709.62;105914;1274;22637;-83
2022/06/01 05:57:42;;;;;;;3.40;1.30;;;;;;;17.22;61.76;98714.59;105880;1274;22550;-78
2022/06/01 06:00:22;;;;;;;3.60;1.20;;;;;;;17.27;61.57;98712.09;105898;1273;24244;-79
2022/06/01 06:02:53;;;;;;;6.50;1.60;;;;;;;17.24;61.53;98717.09;105879;1276;23799;-80
2022/06/01 06:08:30;;;;;;;;;;;;;;;;;;;;;
2022/06/01 06:11:05;;;;;;;5.40;1.50;;;;;;;17.47;61.67;98716.09;106275;1273;24214;-79
2022/06/01 06:13:52;;;;;;;5.20;1.50;;;;;;;17.16;61.77;98721.23;105999;1273;25344;-79
2022/06/01 06:16:24;;;;;;;4.50;1.50;;;;;;;17.24;61.97;98725.93;106067;1276;25246;-80
2022/06/01 06:19:11;;;;;;;;;;;;;;;;;;;;;
2022/06/01 06:22:06;;;;;;;5.40;1.50;;;;;;;17.35;61.89;98733.02;106176;1275;23512;-80
2022/06/01 06:24:38;;;;;;;6.60;1.80;;;;;;;17.49;62.04;98734.39;106051;1276;22563;-79
2022/06/01 06:27:06;;;;;;;4.20;1.40;;;;;;;17.79;61.93;98730.20;105842;1276;24945;-78
2022/06/01 06:29:36;;;;;;;2.60;1.10;;;;;;;17.97;61.63;98735.83;105834;1275;22702;-84
2022/06/01 06:32:25;;;;;;;4.50;1.30;;;;;;;17.89;61.00;98733.27;105986;1274;25593;-82
2022/06/01 06:35:15;;;;;;;5.00;1.40;;;;;;;17.56;61.22;98734.39;105620;1276;24694;-84
2022/06/01 06:37:42;;;;;;;6.70;1.70;;;;;;;17.31;61.67;98731.66;105720;1276;25503;-79
2022/06/01 06:40:11;;;;;;;5.10;1.40;;;;;;;17.14;61.66;98732.52;105768;1279;22702;-83
2022/06/01 06:42:54;;;;;;;4.10;1.30;;;;;;;17.17;61.66;98728.29;106175;1276;22566;-78
2022/06/01 06:45:22;;;;;;;4.10;1.30;;;;;;;17.39;61.57;98730.29;105811;1277;22538;-83
2022/06/01 06:47:55;;;;;;;4.30;1.50;;;;;;;17.57;61.17;98735.90;106067;1274;22570;-79
2022/06/01 06:50:25;;;;;;;3.00;1.10;;;;;;;17.63;61.18;98736.39;106082;1276;25243;-79
2022/06/01 06:53:16;;;;;;;4.40;1.10;;;;;;;17.76;61.28;98733.77;106131;1276;24358;-78
2022/06/01 06:55:54;;;;;;;6.30;1.40;;;;;;;17.95;61.33;98740.35;105757;1274;23908;-75
2022/06/01 06:58:47;;;;;;;5.70;1.40;;;;;;;18.07;60.83;98737.73;105812;1274;25312;-78
2022/06/01 07:02:00;;;;;;;5.20;1.60;;;;;;;18.17;61.11;98737.45;106091;1276;22541;-86
2022/06/01 07:04:24;;;;;;;6.00;1.30;;;;;;;18.35;60.89;98743.05;105856;1274;24148;-79
2022/06/01 07:07:14;;;;;;;6.40;1.70;;;;;;;18.53;61.35;98735.29;105903;1276;24215;-80
2022/06/01 07:10:02;;;;;;;5.80;1.60;;;;;;;18.85;61.06;98740.27;105676;1274;22565;-80
2022/06/01 07:12:29;;;;;;;5.40;1.40;;;;;;;18.99;60.92;98735.11;105504;1274;22710;-79
2022/06/01 07:15:24;;;;;;;6.00;1.50;;;;;;;19.15;60.38;98736.13;105882;1274;23919;-81
2022/06/01 07:17:57;;;;;;;4.30;1.50;;;;;;;19.37;60.93;98734.71;105804;1273;25866;-79
2022/06/01 07:20:32;;;;;;;6.00;1.70;;;;;;;19.64;60.79;98735.95;105721;1274;24208;-84
2022/06/01 07:23:05;;;;;;;5.80;1.70;;;;;;;19.83;60.49;98731.59;105841;1273;22534;-80
2022/06/01 07:25:45;;;;;;;5.90;1.70;;;;;;;20.09;60.71;98731.73;105796;1273;22550;-83
2022/06/01 07:28:27;;;;;;;6.90;1.70;;;;;;;20.26;59.64;98734.97;105958;1273;22655;-79
2022/06/01 07:30:56;;;;;;;5.40;1.60;;;;;;;20.15;59.06;98732.80;105838;1276;22569;-82
2022/06/01 07:33:43;;;;;;;5.90;1.40;;;;;;;20.03;58.81;98734.24;105848;1273;22571;-80
2022/06/01 07:36:21;;;;;;;5.80;1.60;;;;;;;20.13;59.85;98735.52;105962;1273;25368;-78
2022/06/01 07:44:31;;;;;;;3.40;1.60;;;;;;;20.77;59.61;98737.58;105953;1274;23180;-76
2022/06/01 07:47:04;;;;;;;5.00;1.70;;;;;;;20.87;58.96;98742.17;105794;1273;22665;-80
2022/06/01 07:49:36;;;;;;;4.40;1.70;;;;;;;20.82;58.45;98744.35;105886;1274;22603;-81
2022/06/01 07:52:10;;;;;;;6.50;1.60;;;;;;;20.74;58.40;98743.55;105628;1274;22704;-82
2022/06/01 07:54:39;;;;;;;4.50;1.70;;;;;;;20.72;58.80;98744.27;106023;1273;22556;-79
2022/06/01 07:57:11;;;;;;;4.10;1.70;;;;;;;20.72;58.62;98745.89;105837;1273;22726;-83
2022/06/01 07:59:38;;;;;;;6.40;2.00;;;;;;;20.76;58.76;98745.96;106116;1273;22834;-85
2022/06/01 08:02:09;;;;;;;6.30;1.80;;;;;;;20.94;58.86;98746.17;105968;1275;22531;-82
2022/06/01 08:04:42;;;;;;;5.10;1.80;;;;;;;21.07;58.46;98749.79;105951;1273;22524;-80
2022/06/01 08:07:30;;;;;;;4.30;1.60;;;;;;;21.11;58.12;98747.39;106120;1273;24274;-79
2022/06/01 08:10:29;;;;;;;3.40;1.50;;;;;;;21.12;57.64;98748.55;105879;1275;24035;-80
2022/06/01 08:13:07;;;;;;;4.20;1.50;;;;;;;21.21;58.15;98747.27;105923;1274;25532;-84
2022/06/01 08:15:41;;;;;;;5.80;1.90;;;;;;;21.56;58.57;98752.77;105942;1276;22718;-83
2022/06/01 08:18:09;;;;;;;5.20;1.60;;;;;;;21.94;57.90;98756.69;105857;1274;25485;-78
2022/06/01 08:20:54;;;;;;;5.90;1.60;;;;;;;21.97;57.08;98754.30;105901;1273;22535;-79
2022/06/01 08:23:26;;;;;;;5.20;1.80;;;;;;;22.15;56.99;98754.95;105922;1273;24280;-79
2022/06/01 08:25:56;;;;;;;5.50;1.70;;;;;;;22.38;57.46;98751.14;106064;1273;24328;-80
2022/06/01 08:28:32;;;;;;;4.30;1.80;;;;;;;22.63;57.83;98750.55;105832;1277;22550;-85
2022/06/01 08:31:16;;;;;;;4.30;1.60;;;;;;;22.85;56.74;98749.98;105965;1274;22695;-78
2022/06/01 08:34:10;;;;;;;4.30;1.60;;;;;;;22.65;56.14;98752.63;105993;1273;22693;-83
2022/06/01 08:36:58;;;;;;;6.40;1.70;;;;;;;22.28;56.18;98758.48;105924;1276;22563;-83
2022/06/01 08:39:27;;;;;;;5.80;1.90;;;;;;;21.67;56.11;98756.00;106021;1276;22634;-80
2022/06/01 08:42:00;;;;;;;5.80;1.60;;;;;;;21.27;56.69;98760.07;105933;1277;25284;-78
2022/06/01 08:44:43;;;;;;;5.00;1.70;;;;;;;21.22;56.28;98758.96;106077;1273;24784;-84
2022/06/01 08:47:25;;;;;;;4.40;1.40;;;;;;;21.42;55.98;98757.83;105927;1274;26494;-79
2022/06/01 08:49:57;;;;;;;3.90;1.40;;;;;;;21.37;55.92;98758.63;106201;1273;22764;-78
2022/06/01 08:52:31;;;;;;;4.90;1.30;;;;;;;21.32;55.64;98759.23;105859;1274;24235;-83
2022/06/01 08:55:00;;;;;;;5.00;1.50;;;;;;;21.52;55.88;98761.69;106011;1273;22699;-81
2022/06/01 08:58:04;;;;;;;5.30;1.30;;;;;;;21.64;55.30;98759.31;106116;1273;22547;-86
2022/06/01 09:00:48;;;;;;;4.70;1.40;;;;;;;21.41;54.95;98760.09;105872;1274;22563;-78
2022/06/01 09:03:31;;;;;;;3.50;1.00;;;;;;;21.60;55.74;98757.96;106009;1274;25548;-82
2022/06/01 09:06:47;;;;;;;4.40;1.40;;;;;;;21.91;55.25;98755.93;106022;1275;24371;-82
2022/06/01 09:09:53;;;;;;;2.70;1.10;;;;;;;22.02;54.19;98760.85;105983;1273;25791;-79
2022/06/01 09:12:24;;;;;;;3.60;1.20;;;;;;;22.05;53.48;98767.36;105899;1273;24220;-80
2022/06/01 09:14:55;;;;;;;2.90;1.00;;;;;;;21.97;54.07;98764.26;105955;1274;24261;-81
2022/06/01 09:17:26;;;;;;;6.50;1.60;;;;;;;22.04;53.58;98769.94;105954;1274;22740;-80
2022/06/01 09:23:09;;;;;;;3.40;1.10;;;;;;;22.26;54.27;98766.27;105956;1274;25500;-80
2022/06/01 09:25:57;;;;;;;3.30;1.00;;;;;;;22.41;53.76;98766.95;105916;1277;22553;-84
2022/06/01 09:28:29;;;;;;;2.70;1.10;;;;;;;22.32;52.63;98765.65;106111;1273;22626;-82
2022/06/01 09:31:02;;;;;;;4.40;1.20;;;;;;;22.22;52.93;98764.02;105828;1274;22630;-76
2022/06/01 09:33:35;;;;;;;3.50;1.10;;;;;;;22.27;52.65;98766.45;105965;1273;22716;-81
2022/06/01 09:36:29;;;;;;;6.20;1.40;;;;;;;22.36;53.16;98757.20;106024;1273;22597;-79
2022/06/01 09:39:32;;;;;;;2.80;1.00;;;;;;;22.48;52.30;98763.64;105964;1274;22532;-80
2022/06/01 09:42:34;;;;;;;5.80;1.10;;;;;;;22.46;51.66;98765.23;105830;1277;22540;-83
2022/06/01 09:45:11;;;;;;;6.50;1.20;;;;;;;22.62;52.37;98765.16;105902;1273;24312;-77
2022/06/01 09:47:47;;;;;;;2.80;0.90;;;;;;;22.73;50.70;98764.85;105837;1273;22601;-82
2022/06/01 09:50:34;;;;;;;6.20;1.30;;;;;;;22.65;50.41;98763.81;105940;1274;22621;-75
2022/06/01 09:53:23;;;;;;;3.90;1.20;;;;;;;22.65;50.79;98769.05;105893;1275;24215;-76
2022/06/01 09:55:58;;;;;;;3.90;1.00;;;;;;;22.99;49.84;98769.71;105841;1277;22632;-82
2022/06/01 10:07:41;;;;;;;2.20;0.90;;;;;;;23.66;50.68;98774.80;106101;1273;25297;-75
2022/06/01 10:10:31;;;;;;;3.30;1.00;;;;;;;23.77;49.54;98776.89;106141;1273;22836;-79
2022/06/01 10:13:06;;;;;;;3.10;1.20;;;;;;;23.64;48.88;98773.08;105966;1274;22594;-83
2022/06/01 10:16:08;;;;;;;4.30;1.20;;;;;;;23.69;48.99;98772.23;106028;1274;24269;-82
2022/06/01 10:18:38;;;;;;;4.10;1.10;;;;;;;23.85;48.75;98765.98;105989;1274;22982;-78
2022/06/01 10:21:10;;;;;;;5.40;1.10;;;;;;;23.98;48.86;98762.96;105937;1276;24201;-77
2022/06/01 10:24:31;;;;;;;4.60;1.20;;;;;;;24.08;48.67;98774.73;106152;1273;25438;-77
2022/06/01 10:27:03;;;;;;;4.50;0.90;;;;;;;23.98;49.05;98770.63;106033;1274;22708;-81
2022/06/01 10:29:59;;;;;;;5.30;1.20;;;;;;;23.90;49.33;98775.11;105852;1274;22599;-82
2022/06/01 10:32:39;;;;;;;5.50;1.10;;;;;;;23.28;48.63;98775.42;105906;1273;25222;-78
2022/06/01 10:35:37;;;;;;;4.70;1.00;;;;;;;22.89;48.79;98773.04;105822;1273;22586;-84
2022/06/01 10:38:25;;;;;;;2.10;0.80;;;;;;;22.54;49.07;98774.80;105949;1276;24220;-81
2022/06/01 10:41:22;;;;;;;5.80;1.10;;;;;;;22.39;48.73;98777.52;105953;1274;25248;-82
2022/06/01 10:43:59;;;;;;;5.00;1.10;;;;;;;22.19;48.51;98780.92;105767;1278;22822;-82
2022/06/01 10:46:37;;;;;;;3.30;0.90;;;;;;;21.85;48.11;98787.44;105942;1274;22557;-78
2022/06/01 10:49:23;;;;;;;6.00;1.00;;;;;;;21.52;47.75;98788.61;105982;1274;22545;-82
2022/06/01 10:52:07;;;;;;;4.50;1.20;;;;;;;21.40;47.59;98788.48;106039;1273;22563;-76
2022/06/01 10:54:41;;;;;;;3.90;1.00;;;;;;;21.63;47.77;98790.73;105708;1273;25620;-78
2022/06/01 10:57:18;;;;;;;5.20;1.10;;;;;;;22.03;48.20;98786.46;105880;1274;24232;-77
2022/06/01 10:59:48;;;;;;;6.50;1.30;;;;;;;22.70;48.57;98773.66;105877;1273;23885;-77
2022/06/01 11:02:39;;;;;;;6.50;1.20;;;;;;;23.26;47.65;98771.34;105650;1277;22531;-80
2022/06/01 11:05:18;;;;;;;5.90;1.00;;;;;;;23.73;47.53;98774.89;105733;1274;22543;-77
2022/06/01 11:09:06;;;;;;;6.10;1.10;;;;;;;24.08;47.87;98770.27;106043;1273;23027;-78
2022/06/01 11:12:13;;;;;;;4.90;1.20;;;;;;;24.79;47.91;98770.09;105349;1282;22623;-78
2022/06/01 11:15:05;;;;;;;4.30;1.00;;;;;;;24.91;47.36;98767.28;105069;1282;25566;-78
2022/06/01 11:17:48;;;;;;;3.90;1.00;;;;;;;24.61;47.42;98768.69;105312;1284;22580;-77
2022/06/01 11:20:33;;;;;;;3.30;1.00;;;;;;;24.44;45.74;98776.77;105091;1285;24379;-80
2022/06/01 11:23:16;;;;;;;4.20;1.00;;;;;;;23.72;46.01;98775.88;105510;1282;22571;-84
2022/06/01 11:25:59;;;;;;;4.50;1.20;;;;;;;23.37;46.57;98776.33;105559;1282;22585;-77
2022/06/01 11:29:16;;;;;;;5.80;1.30;;;;;;;23.29;46.52;98771.45;105522;1282;25327;-79
2022/06/01 11:31:52;;;;;;;2.70;1.00;;;;;;;23.52;46.59;98769.97;104623;1290;24309;-81
2022/06/01 11:34:36;;;;;;;5.20;1.40;;;;;;;23.59;47.03;98771.65;104447;1290;22573;-80
2022/06/01 11:37:29;;;;;;;3.70;1.00;;;;;;;23.97;46.76;98773.71;104462;1290;25451;-81
2022/06/01 11:40:09;;;;;;;4.60;1.00;;;;;;;24.23;46.55;98775.36;104390;1291;25462;-81
2022/06/01 11:42:39;;;;;;;3.70;1.10;;;;;;;24.07;44.54;98782.03;104377;1290;22582;-74
2022/06/01 11:45:32;;;;;;;3.30;0.90;;;;;;;23.52;45.56;98771.86;104839;1284;24199;-79
2022/06/01 11:48:08;;;;;;;5.10;0.90;;;;;;;23.32;45.80;98779.95;105645;1284;25279;-78
2022/06/01 11:51:08;;;;;;;3.50;0.70;;;;;;;22.99;45.26;98777.70;105034;1284;24234;-80
2022/06/01 11:54:46;;;;;;;;;;;;;;;;;;;;;
2022/06/01 11:57:56;;;;;;;3.70;0.90;;;;;;;21.82;45.39;98783.80;105695;1282;25573;-78
2022/06/01 12:00:57;;;;;;;6.00;1.20;;;;;;;21.60;46.01;98787.98;105337;1284;22756;-78
2022/06/01 12:03:44;;;;;;;4.10;1.10;;;;;;;21.51;45.68;98788.73;105796;1274;22542;-78
2022/06/01 12:06:53;;;;;;;5.80;1.00;;;;;;;21.41;45.50;98787.81;106087;1274;22601;-77
2022/06/01 12:09:38;;;;;;;4.70;1.10;;;;;;;21.30;45.12;98793.59;106076;1276;23950;-78
2022/06/01 12:12:34;;;;;;;6.50;1.30;;;;;;;21.26;45.42;98799.56;105811;1277;24215;-82
2022/06/01 12:15:41;;;;;;;4.80;0.90;;;;;;;21.30;45.22;98800.73;105552;1282;23846;-77
2022/06/01 12:18:12;;;;;;;5.60;1.20;;;;;;;21.09;44.92;98809.19;105724;1282;22526;-78
2022/06/01 12:20:47;;;;;;;7.50;1.30;;;;;;;20.89;45.14;98819.95;106140;1282;24295;-77
2022/06/01 12:30:00;;;;;;;;;;;;;;;;;;;;;
2022/06/01 12:32:29;;;;;;;9.10;1.10;;;;;;;20.35;44.85;98836.39;105320;1282;22631;-82
2022/06/01 12:35:02;;;;;;;6.80;1.30;;;;;;;20.36;45.19;98844.80;105498;1281;22546;-75
2022/06/01 12:37:38;;;;;;;4.50;0.90;;;;;;;20.30;44.37;98847.39;105216;1284;23908;-76
2022/06/01 12:40:13;;;;;;;3.50;1.00;;;;;;;20.10;44.25;98842.85;105392;1281;24678;-78
2022/06/01 12:43:17;;;;;;;6.20;1.30;;;;;;;19.89;44.56;98844.80;105143;1284;25334;-77
2022/06/01 12:46:39;;;;;;;3.30;1.10;;;;;;;19.85;44.85;98852.31;106084;1281;23834;-76
2022/06/01 12:49:38;;;;;;;3.60;0.80;;;;;;;19.78;45.07;98864.49;105561;1281;23395;-76
2022/06/01 12:52:26;;;;;;;3.60;0.90;;;;;;;19.64;45.09;98875.27;105325;1278;24327;-80
2022/06/01 12:55:04;;;;;;;9.60;1.00;;;;;;;19.51;45.19;98875.39;105956;1274;22691;-76
2022/06/01 12:57:37;;;;;;;8.30;1.30;;;;;;;19.33;45.30;98878.13;105755;1278;22536;-83
2022/06/01 13:00:07;;;;;;;10.40;1.40;;;;;;;19.14;45.17;98877.66;105940;1275;24212;-80
2022/06/01 13:02:42;;;;;;;6.10;1.60;;;;;;;18.99;45.31;98875.08;105872;1275;24281;-78
2022/06/01 13:05:12;;;;;;;5.00;1.00;;;;;;;18.81;45.28;98873.55;105917;1274;22537;-82
2022/06/01 13:07:45;;;;;;;4.50;1.00;;;;;;;18.61;45.25;98876.16;106165;1275;22538;-75
2022/06/01 13:10:28;;;;;;;5.00;1.00;;;;;;;18.33;45.38;98874.59;105971;1275;25437;-75
2022/06/01 13:13:12;;;;;;;5.10;1.00;;;;;;;18.10;45.57;98865.39;106471;1274;22560;-76
2022/06/01 13:15:57;;;;;;;3.40;1.20;;;;;;;17.93;45.74;98864.88;106165;1277;24080;-78
2022/06/01 13:19:21;;;;;;;7.90;1.50;;;;;;;17.84;45.91;98871.17;106278;1275;24560;-77
2022/06/01 13:22:28;;;;;;;2.70;1.00;;;;;;;17.80;46.10;98873.62;105918;1278;26730;-75
2022/06/01 13:25:17;;;;;;;9.40;1.20;;;;;;;17.74;46.05;98876.06;105942;1274;22681;-84
2022/06/01 13:28:14;;;;;;;4.50;1.40;;;;;;;17.73;46.12;98875.41;105863;1274;22581;-77
2022/06/01 13:31:31;;;;;;;5.00;1.20;;;;;;;17.88;46.19;98872.95;105957;1275;22570;-76
2022/06/01 13:33:59;;;;;;;6.80;1.30;;;;;;;18.22;46.32;98872.50;105884;1274;24669;-79
2022/06/01 13:36:38;;;;;;;5.80;1.10;;;;;;;18.64;46.60;98861.94;105664;1278;24278;-83
2022/06/01 13:39:43;;;;;;;6.80;1.20;;;;;;;18.99;46.17;98866.70;105481;1276;22570;-79
2022/06/01 13:42:23;;;;;;;5.80;1.30;;;;;;;19.24;46.05;98857.27;105782;1278;25223;-82
2022/06/01 13:45:29;;;;;;;;;;;;;;;;;;;;;
2022/06/01 13:48:55;;;;;;;3.90;0.90;;;;;;;19.97;45.62;98837.52;106452;1275;22534;-81
2022/06/01 13:51:41;;;;;;;5.30;1.20;;;;;;;20.55;45.96;98828.80;106176;1278;24229;-77
2022/06/01 13:55:35;;;;;;;4.70;1.20;;;;;;;20.93;45.86;98823.40;105618;1278;22629;-76
2022/06/01 13:58:10;;;;;;;2.60;1.00;;;;;;;21.27;45.21;98817.52;105793;1277;24515;-76
2022/06/01 14:00:42;;;;;;;3.70;1.10;;;;;;;21.18;45.05;98817.10;105921;1274;24257;-77
2022/06/01 14:03:42;;;;;;;3.80;1.10;;;;;;;21.20;45.04;98809.70;105719;1274;25533;-78
2022/06/01 14:06:29;;;;;;;4.00;1.20;;;;;;;21.30;45.28;98798.69;105851;1274;23947;-79
2022/06/01 14:09:33;;;;;;;;;;;;;;;;;;;;;